Aviation Digital Data Service (ADDS)

Output produced by METARs form (1123 UTC 19 February 2019)
found at http://www.aviationweather.gov/metar/data/
 
METAR text: RKSS 191100Z 29004KT 9999 SCT040 01/M02 Q1021 NOSIG
Conditions at: RKSS (SEOUL/KIMPO INTL, KR) observed 1100 UTC 19 February 2019
Temperature: 1.0°C (34°F)
Dewpoint: -2.0°C (28°F) [RH = 80%]
Pressure (altimeter): 30.15 inches Hg (1021.0 mb)
Winds: from the WNW (290 degrees) at 5 MPH (4 knots; 2.1 m/s)
Visibility: 6 or more miles (10+ km)
Ceiling: at least 12,000 feet AGL
Clouds: scattered clouds at 4000 feet AGL
Weather: no significant weather observed at this time

METAR text: RKSS 191000Z 26003KT CAVOK 02/M02 Q1020 NOSIG
Conditions at: RKSS (SEOUL/KIMPO INTL, KR) observed 1000 UTC 19 February 2019
Temperature: 2.0°C (36°F)
Dewpoint: -2.0°C (28°F) [RH = 75%]
Pressure (altimeter): 30.12 inches Hg (1020.0 mb)
Winds: from the W (260 degrees) at 3 MPH (3 knots; 1.5 m/s)
Visibility: 6 or more miles (10+ km)
Ceiling: ceiling and visibility are OK
Clouds: unknown
Weather: no significant weather observed at this time

METAR text: RKSS 190900Z 27005KT 9999 BKN035 02/M02 Q1019 NOSIG
Conditions at: RKSS (SEOUL/KIMPO INTL, KR) observed 0900 UTC 19 February 2019
Temperature: 2.0°C (36°F)
Dewpoint: -2.0°C (28°F) [RH = 75%]
Pressure (altimeter): 30.09 inches Hg (1019.0 mb)
Winds: from the W (270 degrees) at 6 MPH (5 knots; 2.6 m/s)
Visibility: 6 or more miles (10+ km)
Ceiling: 3500 feet AGL
Clouds: broken clouds at 3500 feet AGL
Weather: no significant weather observed at this time

METAR text: RKSS 190800Z 28005KT 260V350 8000 BKN025 03/M02 Q1018 NOSIG
Conditions at: RKSS (SEOUL/KIMPO INTL, KR) observed 0800 UTC 19 February 2019
Temperature: 3.0°C (37°F)
Dewpoint: -2.0°C (28°F) [RH = 70%]
Pressure (altimeter): 30.06 inches Hg (1018.0 mb)
Winds: from the W (280 degrees) at 6 MPH (5 knots; 2.6 m/s)
Visibility: 5 miles ( 8 km)
Ceiling: 2500 feet AGL
Clouds: broken clouds at 2500 feet AGL
Weather: no significant weather observed at this time

METAR text: RKSS 190700Z 34004KT 300V360 8000 FEW015 BKN035 OVC120 03/M02 Q1017 NOSIG
Conditions at: RKSS (SEOUL/KIMPO INTL, KR) observed 0700 UTC 19 February 2019
Temperature: 3.0°C (37°F)
Dewpoint: -2.0°C (28°F) [RH = 70%]
Pressure (altimeter): 30.03 inches Hg (1017.0 mb)
Winds: from the NNW (340 degrees) at 5 MPH (4 knots; 2.1 m/s)
Visibility: 5 miles ( 8 km)
Ceiling: 3500 feet AGL
Clouds: few clouds at 1500 feet AGL
broken clouds at 3500 feet AGL
overcast cloud deck at 12000 feet AGL
Weather: no significant weather observed at this time

METAR text: RKSS 190600Z 33006KT 6000 SCT013 BKN035 OVC120 02/M02 Q1017 NOSIG
Conditions at: RKSS (SEOUL/KIMPO INTL, KR) observed 0600 UTC 19 February 2019
Temperature: 2.0°C (36°F)
Dewpoint: -2.0°C (28°F) [RH = 75%]
Pressure (altimeter): 30.03 inches Hg (1017.0 mb)
Winds: from the NNW (330 degrees) at 7 MPH (6 knots; 3.1 m/s)
Visibility: 4 miles ( 6 km)
Ceiling: 3500 feet AGL
Clouds: scattered clouds at 1300 feet AGL
broken clouds at 3500 feet AGL
overcast cloud deck at 12000 feet AGL
Weather: no significant weather observed at this time

METAR text: RKSS 190500Z 33005KT 3500 BR SCT008 BKN025 OVC100 01/M01 Q1017 NOSIG
Conditions at: RKSS (SEOUL/KIMPO INTL, KR) observed 0500 UTC 19 February 2019
Temperature: 1.0°C (34°F)
Dewpoint: -1.0°C (30°F) [RH = 86%]
Pressure (altimeter): 30.03 inches Hg (1017.0 mb)
Winds: from the NNW (330 degrees) at 6 MPH (5 knots; 2.6 m/s)
Visibility: 2.17 miles (3.49 km)
Ceiling: 2500 feet AGL
Clouds: scattered clouds at 800 feet AGL
broken clouds at 2500 feet AGL
overcast cloud deck at 10000 feet AGL
Weather: BR  (mist)

METAR text: RKSS 190400Z 32007KT 3000 BR SCT008 BKN025 OVC100 01/M02 Q1018 NOSIG
Conditions at: RKSS (SEOUL/KIMPO INTL, KR) observed 0400 UTC 19 February 2019
Temperature: 1.0°C (34°F)
Dewpoint: -2.0°C (28°F) [RH = 80%]
Pressure (altimeter): 30.06 inches Hg (1018.0 mb)
Winds: from the NW (320 degrees) at 8 MPH (7 knots; 3.6 m/s)
Visibility: 1.86 miles (2.99 km)
Ceiling: 2500 feet AGL
Clouds: scattered clouds at 800 feet AGL
broken clouds at 2500 feet AGL
overcast cloud deck at 10000 feet AGL
Weather: BR  (mist)

METAR text: RKSS 190300Z 32005KT 2000 -SN BR SCT005 BKN025 OVC080 00/M02 Q1018 BECMG 3500 BR
Conditions at: RKSS (SEOUL/KIMPO INTL, KR) observed 0300 UTC 19 February 2019
Temperature: 0.0°C (32°F)
Dewpoint: -2.0°C (28°F) [RH = 86%]
Pressure (altimeter): 30.06 inches Hg (1018.0 mb)
Winds: from the NW (320 degrees) at 6 MPH (5 knots; 2.6 m/s)
Visibility: 1.24 miles (2.00 km)
Ceiling: 2500 feet AGL
Clouds: scattered clouds at 500 feet AGL
broken clouds at 2500 feet AGL
overcast cloud deck at 8000 feet AGL
Weather: -SN BR  (light snow, mist)

METAR text: RKSS 190200Z 33008KT 1000 R32L/1000N R32R/1000N -SN BR SCT003 BKN020 OVC080 M00/M02 Q1018 BECMG 2000 BR
Conditions at: RKSS (SEOUL/KIMPO INTL, KR) observed 0200 UTC 19 February 2019
Temperature: 0.0°C (32°F)
Dewpoint: -2.0°C (28°F) [RH = 86%]
Pressure (altimeter): 30.06 inches Hg (1018.0 mb)
Winds: from the NNW (330 degrees) at 9 MPH (8 knots; 4.1 m/s)
Visibility: 0.62 miles (1.00 km)
Ceiling: 2000 feet AGL
Clouds: scattered clouds at 300 feet AGL
broken clouds at 2000 feet AGL
overcast cloud deck at 8000 feet AGL
Weather: -SN BR  (light snow, mist)

METAR text: RKSS 190100Z 33006KT 0600 R32L/0650N R32R/0800N SN FG SCT003 BKN020 OVC080 M00/M02 Q1018 NOSIG
Conditions at: RKSS (SEOUL/KIMPO INTL, KR) observed 0100 UTC 19 February 2019
Temperature: 0.0°C (32°F)
Dewpoint: -2.0°C (28°F) [RH = 86%]
Pressure (altimeter): 30.06 inches Hg (1018.0 mb)
Winds: from the NNW (330 degrees) at 7 MPH (6 knots; 3.1 m/s)
Visibility: 0.37 miles (0.60 km)
Ceiling: 2000 feet AGL
Clouds: scattered clouds at 300 feet AGL
broken clouds at 2000 feet AGL
overcast cloud deck at 8000 feet AGL
Weather: SN FG  (moderate snow, fog)

METAR text: RKSS 190030Z 35003KT 0800 0400NW R32L/0700D R32R/0900N -SN FG SCT004 BKN020 OVC080 00/M02 Q1018 NOSIG
Conditions at: RKSS (SEOUL/KIMPO INTL, KR) observed 0030 UTC 19 February 2019
Temperature: 0.0°C (32°F)
Dewpoint: -2.0°C (28°F) [RH = 86%]
Pressure (altimeter): 30.06 inches Hg (1018.0 mb)
Winds: from the N (350 degrees) at 3 MPH (3 knots; 1.5 m/s)
Visibility: 0.50 miles (0.80 km)
Ceiling: 2000 feet AGL
Clouds: scattered clouds at 400 feet AGL
broken clouds at 2000 feet AGL
overcast cloud deck at 8000 feet AGL
Weather: -SN FG  (light snow, fog)

METAR text: RKSS 190000Z 03003KT 1000 0500SW R32L/0900N R32R/0900D -SN PRFG SCT004 BKN020 OVC080 00/M02 Q1018 NOSIG
Conditions at: RKSS (SEOUL/KIMPO INTL, KR) observed 0000 UTC 19 February 2019
Temperature: 0.0°C (32°F)
Dewpoint: -2.0°C (28°F) [RH = 86%]
Pressure (altimeter): 30.06 inches Hg (1018.0 mb)
Winds: from the NNE (30 degrees) at 3 MPH (3 knots; 1.5 m/s)
Visibility: 0.62 miles (1.00 km)
Ceiling: 2000 feet AGL
Clouds: scattered clouds at 400 feet AGL
broken clouds at 2000 feet AGL
overcast cloud deck at 8000 feet AGL
Weather: PRFG -SN  (partial fog, light snow)

METAR text: RKSS 182342Z 36003KT 1200 0800 R32L/1200D R32R/1500D -SN PRFG SCT005 BKN020 OVC080 00/M02 Q1018 NOSIG
Conditions at: RKSS (SEOUL/KIMPO INTL, KR) observed 2342 UTC 18 February 2019
Temperature: 0.0°C (32°F)
Dewpoint: -2.0°C (28°F) [RH = 86%]
Pressure (altimeter): 30.06 inches Hg (1018.0 mb)
Winds: from the N (360 degrees) at 3 MPH (3 knots; 1.5 m/s)
Visibility: 0.75 miles (1.21 km)
Ceiling: 2000 feet AGL
Clouds: scattered clouds at 500 feet AGL
broken clouds at 2000 feet AGL
overcast cloud deck at 8000 feet AGL
Weather: PRFG -SN  (partial fog, light snow)

METAR text: RKSS 182300Z 02003KT 1800 -SN BR FEW010 BKN025 OVC080 00/M02 Q1018 NOSIG
Conditions at: RKSS (SEOUL/KIMPO INTL, KR) observed 2300 UTC 18 February 2019
Temperature: 0.0°C (32°F)
Dewpoint: -2.0°C (28°F) [RH = 86%]
Pressure (altimeter): 30.06 inches Hg (1018.0 mb)
Winds: from the NNE (20 degrees) at 3 MPH (3 knots; 1.5 m/s)
Visibility: 1.12 miles (1.80 km)
Ceiling: 2500 feet AGL
Clouds: few clouds at 1000 feet AGL
broken clouds at 2500 feet AGL
overcast cloud deck at 8000 feet AGL
Weather: -SN BR  (light snow, mist)

METAR text: RKSS 182246Z 36004KT 1800 -SN BR FEW010 BKN025 OVC080 00/M02 Q1018 NOSIG
Conditions at: RKSS (SEOUL/KIMPO INTL, KR) observed 2246 UTC 18 February 2019
Temperature: 0.0°C (32°F)
Dewpoint: -2.0°C (28°F) [RH = 86%]
Pressure (altimeter): 30.06 inches Hg (1018.0 mb)
Winds: from the N (360 degrees) at 5 MPH (4 knots; 2.1 m/s)
Visibility: 1.12 miles (1.80 km)
Ceiling: 2500 feet AGL
Clouds: few clouds at 1000 feet AGL
broken clouds at 2500 feet AGL
overcast cloud deck at 8000 feet AGL
Weather: -SN BR  (light snow, mist)

METAR text: RKSS 182200Z 02004KT 3200 -SN BR FEW010 BKN025 OVC080 M00/M02 Q1018 NOSIG
Conditions at: RKSS (SEOUL/KIMPO INTL, KR) observed 2200 UTC 18 February 2019
Temperature: 0.0°C (32°F)
Dewpoint: -2.0°C (28°F) [RH = 86%]
Pressure (altimeter): 30.06 inches Hg (1018.0 mb)
Winds: from the NNE (20 degrees) at 5 MPH (4 knots; 2.1 m/s)
Visibility: 1.99 miles (3.20 km)
Ceiling: 2500 feet AGL
Clouds: few clouds at 1000 feet AGL
broken clouds at 2500 feet AGL
overcast cloud deck at 8000 feet AGL
Weather: -SN BR  (light snow, mist)

METAR text: RKSS 182100Z 04003KT 3200 -SN BR FEW010 BKN025 OVC080 M00/M03 Q1019 NOSIG
Conditions at: RKSS (SEOUL/KIMPO INTL, KR) observed 2100 UTC 18 February 2019
Temperature: 0.0°C (32°F)
Dewpoint: -3.0°C (27°F) [RH = 80%]
Pressure (altimeter): 30.09 inches Hg (1019.0 mb)
Winds: from the NE (40 degrees) at 3 MPH (3 knots; 1.5 m/s)
Visibility: 1.99 miles (3.20 km)
Ceiling: 2500 feet AGL
Clouds: few clouds at 1000 feet AGL
broken clouds at 2500 feet AGL
overcast cloud deck at 8000 feet AGL
Weather: -SN BR  (light snow, mist)

METAR text: RKSS 182000Z 05003KT 2800 -SN BR FEW010 BKN025 OVC080 M00/M03 Q1020 NOSIG
Conditions at: RKSS (SEOUL/KIMPO INTL, KR) observed 2000 UTC 18 February 2019
Temperature: 0.0°C (32°F)
Dewpoint: -3.0°C (27°F) [RH = 80%]
Pressure (altimeter): 30.12 inches Hg (1020.0 mb)
Winds: from the NE (50 degrees) at 3 MPH (3 knots; 1.5 m/s)
Visibility: 1.74 miles (2.80 km)
Ceiling: 2500 feet AGL
Clouds: few clouds at 1000 feet AGL
broken clouds at 2500 feet AGL
overcast cloud deck at 8000 feet AGL
Weather: -SN BR  (light snow, mist)

METAR text: RKSS 181900Z 02003KT 4000 -SN HZ FEW010 BKN025 OVC080 00/M04 Q1021 NOSIG
Conditions at: RKSS (SEOUL/KIMPO INTL, KR) observed 1900 UTC 18 February 2019
Temperature: 0.0°C (32°F)
Dewpoint: -4.0°C (25°F) [RH = 74%]
Pressure (altimeter): 30.15 inches Hg (1021.0 mb)
Winds: from the NNE (20 degrees) at 3 MPH (3 knots; 1.5 m/s)
Visibility: 2.49 miles (4.01 km)
Ceiling: 2500 feet AGL
Clouds: few clouds at 1000 feet AGL
broken clouds at 2500 feet AGL
overcast cloud deck at 8000 feet AGL
Weather: -SN HZ  (light snow, haze)

METAR text: RKSS 181837Z 04002KT 4500 -SN HZ FEW010 BKN025 OVC080 01/M06 Q1021 NOSIG
Conditions at: RKSS (SEOUL/KIMPO INTL, KR) observed 1837 UTC 18 February 2019
Temperature: 1.0°C (34°F)
Dewpoint: -6.0°C (21°F) [RH = 59%]
Pressure (altimeter): 30.15 inches Hg (1021.0 mb)
Winds: from the NE (40 degrees) at 2 MPH (2 knots; 1.0 m/s)
Visibility: 2.80 miles (4.51 km)
Ceiling: 2500 feet AGL
Clouds: few clouds at 1000 feet AGL
broken clouds at 2500 feet AGL
overcast cloud deck at 8000 feet AGL
Weather: -SN HZ  (light snow, haze)

METAR text: RKSS 181800Z 01002KT 9999 -SN FEW010 BKN030 OVC080 01/M07 Q1022 NOSIG
Conditions at: RKSS (SEOUL/KIMPO INTL, KR) observed 1800 UTC 18 February 2019
Temperature: 1.0°C (34°F)
Dewpoint: -7.0°C (19°F) [RH = 55%]
Pressure (altimeter): 30.18 inches Hg (1022.0 mb)
Winds: from the N (10 degrees) at 2 MPH (2 knots; 1.0 m/s)
Visibility: 6 or more miles (10+ km)
Ceiling: 3000 feet AGL
Clouds: few clouds at 1000 feet AGL
broken clouds at 3000 feet AGL
overcast cloud deck at 8000 feet AGL
Weather: -SN  (light snow)

METAR text: RKSS 181700Z 32001KT 9999 SCT030 OVC080 01/M07 Q1022 NOSIG
Conditions at: RKSS (SEOUL/KIMPO INTL, KR) observed 1700 UTC 18 February 2019
Temperature: 1.0°C (34°F)
Dewpoint: -7.0°C (19°F) [RH = 55%]
Pressure (altimeter): 30.18 inches Hg (1022.0 mb)
Winds: from the NW (320 degrees) at 1 MPH (1 knots; 0.5 m/s)
Visibility: 6 or more miles (10+ km)
Ceiling: 8000 feet AGL
Clouds: scattered clouds at 3000 feet AGL
overcast cloud deck at 8000 feet AGL
Weather: no significant weather observed at this time

METAR text: RKSS 181600Z 33003KT 9999 FEW030 OVC080 01/M07 Q1023 NOSIG
Conditions at: RKSS (SEOUL/KIMPO INTL, KR) observed 1600 UTC 18 February 2019
Temperature: 1.0°C (34°F)
Dewpoint: -7.0°C (19°F) [RH = 55%]
Pressure (altimeter): 30.21 inches Hg (1023.0 mb)
Winds: from the NNW (330 degrees) at 3 MPH (3 knots; 1.5 m/s)
Visibility: 6 or more miles (10+ km)
Ceiling: 8000 feet AGL
Clouds: few clouds at 3000 feet AGL
overcast cloud deck at 8000 feet AGL
Weather: no significant weather observed at this time

METAR text: RKSS 181500Z 32003KT 9999 FEW030 OVC080 01/M08 Q1023 NOSIG
Conditions at: RKSS (SEOUL/KIMPO INTL, KR) observed 1500 UTC 18 February 2019
Temperature: 1.0°C (34°F)
Dewpoint: -8.0°C (18°F) [RH = 51%]
Pressure (altimeter): 30.21 inches Hg (1023.0 mb)
Winds: from the NW (320 degrees) at 3 MPH (3 knots; 1.5 m/s)
Visibility: 6 or more miles (10+ km)
Ceiling: 8000 feet AGL
Clouds: few clouds at 3000 feet AGL
overcast cloud deck at 8000 feet AGL
Weather: no significant weather observed at this time

METAR text: RKSS 181400Z 32003KT CAVOK 01/M08 Q1024 NOSIG
Conditions at: RKSS (SEOUL/KIMPO INTL, KR) observed 1400 UTC 18 February 2019
Temperature: 1.0°C (34°F)
Dewpoint: -8.0°C (18°F) [RH = 51%]
Pressure (altimeter): 30.24 inches Hg (1024.0 mb)
Winds: from the NW (320 degrees) at 3 MPH (3 knots; 1.5 m/s)
Visibility: 6 or more miles (10+ km)
Ceiling: ceiling and visibility are OK
Clouds: unknown
Weather: no significant weather observed at this time

METAR text: RKSS 181300Z 01003KT CAVOK 01/M07 Q1024 NOSIG
Conditions at: RKSS (SEOUL/KIMPO INTL, KR) observed 1300 UTC 18 February 2019
Temperature: 1.0°C (34°F)
Dewpoint: -7.0°C (19°F) [RH = 55%]
Pressure (altimeter): 30.24 inches Hg (1024.0 mb)
Winds: from the N (10 degrees) at 3 MPH (3 knots; 1.5 m/s)
Visibility: 6 or more miles (10+ km)
Ceiling: ceiling and visibility are OK
Clouds: unknown
Weather: no significant weather observed at this time

METAR text: RKSS 181200Z 34003KT CAVOK 01/M07 Q1024 NOSIG
Conditions at: RKSS (SEOUL/KIMPO INTL, KR) observed 1200 UTC 18 February 2019
Temperature: 1.0°C (34°F)
Dewpoint: -7.0°C (19°F) [RH = 55%]
Pressure (altimeter): 30.24 inches Hg (1024.0 mb)
Winds: from the NNW (340 degrees) at 3 MPH (3 knots; 1.5 m/s)
Visibility: 6 or more miles (10+ km)
Ceiling: ceiling and visibility are OK
Clouds: unknown
Weather: no significant weather observed at this time

METAR text: RKSS 181100Z 33005KT CAVOK 02/M09 Q1024 NOSIG
Conditions at: RKSS (SEOUL/KIMPO INTL, KR) observed 1100 UTC 18 February 2019
Temperature: 2.0°C (36°F)
Dewpoint: -9.0°C (16°F) [RH = 44%]
Pressure (altimeter): 30.24 inches Hg (1024.0 mb)
Winds: from the NNW (330 degrees) at 6 MPH (5 knots; 2.6 m/s)
Visibility: 6 or more miles (10+ km)
Ceiling: ceiling and visibility are OK
Clouds: unknown
Weather: no significant weather observed at this time

METAR text: RKSS 181000Z 32004KT CAVOK 02/M08 Q1025 NOSIG
Conditions at: RKSS (SEOUL/KIMPO INTL, KR) observed 1000 UTC 18 February 2019
Temperature: 2.0°C (36°F)
Dewpoint: -8.0°C (18°F) [RH = 47%]
Pressure (altimeter): 30.27 inches Hg (1025.0 mb)
Winds: from the NW (320 degrees) at 5 MPH (4 knots; 2.1 m/s)
Visibility: 6 or more miles (10+ km)
Ceiling: ceiling and visibility are OK
Clouds: unknown
Weather: no significant weather observed at this time

METAR text: RKSS 180900Z 30005KT CAVOK 03/M07 Q1024 NOSIG
Conditions at: RKSS (SEOUL/KIMPO INTL, KR) observed 0900 UTC 18 February 2019
Temperature: 3.0°C (37°F)
Dewpoint: -7.0°C (19°F) [RH = 48%]
Pressure (altimeter): 30.24 inches Hg (1024.0 mb)
Winds: from the WNW (300 degrees) at 6 MPH (5 knots; 2.6 m/s)
Visibility: 6 or more miles (10+ km)
Ceiling: ceiling and visibility are OK
Clouds: unknown
Weather: no significant weather observed at this time

METAR text: RKSS 180800Z 30006KT CAVOK 03/M09 Q1024 NOSIG
Conditions at: RKSS (SEOUL/KIMPO INTL, KR) observed 0800 UTC 18 February 2019
Temperature: 3.0°C (37°F)
Dewpoint: -9.0°C (16°F) [RH = 41%]
Pressure (altimeter): 30.24 inches Hg (1024.0 mb)
Winds: from the WNW (300 degrees) at 7 MPH (6 knots; 3.1 m/s)
Visibility: 6 or more miles (10+ km)
Ceiling: ceiling and visibility are OK
Clouds: unknown
Weather: no significant weather observed at this time

METAR text: RKSS 180700Z 31004KT CAVOK 04/M14 Q1024 NOSIG
Conditions at: RKSS (SEOUL/KIMPO INTL, KR) observed 0700 UTC 18 February 2019
Temperature: 4.0°C (39°F)
Dewpoint: -14.0°C ( 7°F) [RH = 25%]
Pressure (altimeter): 30.24 inches Hg (1024.0 mb)
Winds: from the NW (310 degrees) at 5 MPH (4 knots; 2.1 m/s)
Visibility: 6 or more miles (10+ km)
Ceiling: ceiling and visibility are OK
Clouds: unknown
Weather: no significant weather observed at this time

METAR text: RKSS 180600Z 31004KT 280V340 CAVOK 04/M13 Q1025 NOSIG
Conditions at: RKSS (SEOUL/KIMPO INTL, KR) observed 0600 UTC 18 February 2019
Temperature: 4.0°C (39°F)
Dewpoint: -13.0°C ( 9°F) [RH = 28%]
Pressure (altimeter): 30.27 inches Hg (1025.0 mb)
Winds: from the NW (310 degrees) at 5 MPH (4 knots; 2.1 m/s)
Visibility: 6 or more miles (10+ km)
Ceiling: ceiling and visibility are OK
Clouds: unknown
Weather: no significant weather observed at this time

METAR text: RKSS 180500Z 35004KT 320V040 CAVOK 04/M12 Q1025 NOSIG
Conditions at: RKSS (SEOUL/KIMPO INTL, KR) observed 0500 UTC 18 February 2019
Temperature: 4.0°C (39°F)
Dewpoint: -12.0°C (10°F) [RH = 30%]
Pressure (altimeter): 30.27 inches Hg (1025.0 mb)
Winds: from the N (350 degrees) at 5 MPH (4 knots; 2.1 m/s)
Visibility: 6 or more miles (10+ km)
Ceiling: ceiling and visibility are OK
Clouds: unknown
Weather: no significant weather observed at this time

METAR text: RKSS 180400Z 04005KT 340V070 CAVOK 04/M14 Q1025 NOSIG
Conditions at: RKSS (SEOUL/KIMPO INTL, KR) observed 0400 UTC 18 February 2019
Temperature: 4.0°C (39°F)
Dewpoint: -14.0°C ( 7°F) [RH = 25%]
Pressure (altimeter): 30.27 inches Hg (1025.0 mb)
Winds: from the NE (40 degrees) at 6 MPH (5 knots; 2.6 m/s)
Visibility: 6 or more miles (10+ km)
Ceiling: ceiling and visibility are OK
Clouds: unknown
Weather: no significant weather observed at this time

METAR text: RKSS 180300Z 33003KT 230V040 CAVOK 03/M13 Q1027 NOSIG
Conditions at: RKSS (SEOUL/KIMPO INTL, KR) observed 0300 UTC 18 February 2019
Temperature: 3.0°C (37°F)
Dewpoint: -13.0°C ( 9°F) [RH = 30%]
Pressure (altimeter): 30.32 inches Hg (1027.0 mb)
Winds: from the NNW (330 degrees) at 3 MPH (3 knots; 1.5 m/s)
Visibility: 6 or more miles (10+ km)
Ceiling: ceiling and visibility are OK
Clouds: unknown
Weather: no significant weather observed at this time

METAR text: RKSS 180200Z 01004KT 330V060 CAVOK 02/M13 Q1027 NOSIG
Conditions at: RKSS (SEOUL/KIMPO INTL, KR) observed 0200 UTC 18 February 2019
Temperature: 2.0°C (36°F)
Dewpoint: -13.0°C ( 9°F) [RH = 32%]
Pressure (altimeter): 30.32 inches Hg (1027.0 mb)
Winds: from the N (10 degrees) at 5 MPH (4 knots; 2.1 m/s)
Visibility: 6 or more miles (10+ km)
Ceiling: ceiling and visibility are OK
Clouds: unknown
Weather: no significant weather observed at this time

METAR text: RKSS 180100Z 25001KT CAVOK 01/M08 Q1027 NOSIG
Conditions at: RKSS (SEOUL/KIMPO INTL, KR) observed 0100 UTC 18 February 2019
Temperature: 1.0°C (34°F)
Dewpoint: -8.0°C (18°F) [RH = 51%]
Pressure (altimeter): 30.32 inches Hg (1027.0 mb)
Winds: from the WSW (250 degrees) at 1 MPH (1 knots; 0.5 m/s)
Visibility: 6 or more miles (10+ km)
Ceiling: ceiling and visibility are OK
Clouds: unknown
Weather: no significant weather observed at this time

METAR text: RKSS 180000Z 02003KT 350V070 CAVOK M02/M07 Q1027 NOSIG
Conditions at: RKSS (SEOUL/KIMPO INTL, KR) observed 0000 UTC 18 February 2019
Temperature: -2.0°C (28°F)
Dewpoint: -7.0°C (19°F) [RH = 69%]
Pressure (altimeter): 30.32 inches Hg (1027.0 mb)
Winds: from the NNE (20 degrees) at 3 MPH (3 knots; 1.5 m/s)
Visibility: 6 or more miles (10+ km)
Ceiling: ceiling and visibility are OK
Clouds: unknown
Weather: no significant weather observed at this time

Forecast for: RKSS (SEOUL/KIMPO INTL, KR)
Text: TAF RKSS 191100Z 1912/2018 33005KT 6000 BKN030 TNM04/1921Z TX05/2006Z
Forecast period: 1200 to 1800 UTC 19 February 2019
Forecast type: FROM: standard forecast or significant change
Winds: from the NNW (330 degrees) at 6 MPH (5 knots; 2.6 m/s)
Visibility: 4 miles (6 km)
Ceiling: 3000 feet AGL
Clouds: broken clouds at 3000 feet AGL
Weather: no significant weather forecast for this period
Text: BECMG 1918/1919 4200 BR
Forecast period: 1800 UTC 19 February 2019 to 0000 UTC 20 February 2019
Forecast type: BECOMING: Conditions expected to become as follows by 1900 UTC 19 February 2019
Winds: from the NNW (330 degrees) at 6 MPH (5 knots; 2.6 m/s)
Visibility: 2.61 miles (4.20 km)
Ceiling: 3000 feet AGL
Clouds: broken clouds at 3000 feet AGL
Weather: BR  (mist)
Text: BECMG 2000/2001 27010KT 7000 NSW SCT030
Forecast period: 0000 to 0900 UTC 20 February 2019
Forecast type: BECOMING: Conditions expected to become as follows by 0100 UTC 20 February 2019
Winds: from the W (270 degrees) at 12 MPH (10 knots; 5.1 m/s)
Visibility: 4 miles (7 km)
Ceiling: at least 12,000 feet AGL
Clouds: scattered clouds at 3000 feet AGL
Weather: NSW  (no significant weather)
Text: BECMG 2009/2010 33005KT
Forecast period: 0900 to 1800 UTC 20 February 2019
Forecast type: BECOMING: Conditions expected to become as follows by 1000 UTC 20 February 2019
Winds: from the NNW (330 degrees) at 6 MPH (5 knots; 2.6 m/s)
Visibility: 4 miles (7 km)
Ceiling: at least 12,000 feet AGL
Clouds: scattered clouds at 3000 feet AGL
Weather: NSW  (no significant weather)